Tiempo atmosférico en la estación meteorológica de Coruña Del Conde, Burgos (945 m.)



Fecha
DESCASC
Temp. máxima en grados centígrados (hora)
DESCASC
Temp. mínima en grados centígrados (hora)
DESCASC
Temp. media en grados centígrados
DESCASC
Racha de viento máxima en m/sg (hora)
DESCASC
Velocidad máxima media en intervalos de 10 minutos(hora)
DESCASC
Precipitaciones diarias en mm
DESCASC
Precipitaciones de 00:00 a 06:00 en mm
DESCASC
Precipitaciones de 06:00 a 12:00 en mm
DESCASC
Precipitaciones de 12:00 a 18:00 en mm
DESCASC
Precipitaciones de 18:00 a 24:00 en mm
DESCASC
25-01-2020 8.3 (14:50) 3.2 (00:00) 5.8 8.33 (09:40) 5 (09:40) 3 0 0.8 0.2 2
24-01-2020 8.2 (16:10) 2.5 (22:50) 5.3 8.06 (01:10) 4.72 (01:10) 0 0 0 0 0
23-01-2020 9.3 (16:00) 2.1 (01:40) 5.7 10.28 (19:00) 5.56 (03:40) 0 0 0 0 0
22-01-2020 7.7 (15:50) 2.7 (00:00) 5.2 11.39 (00:10) 6.39 (12:40) 0 0 0 0 0
21-01-2020 7.8 (19:00) -0.5 (-00:0) 3.7 15.56 (21:00) 8.89 (21:00) 0.4 0 0.2 0 0.2
20-01-2020 3.6 (14:50) -4.3 (-00:0) -0.4 10 (00:10) 6.11 (15:10) 0 0 0 0 0
19-01-2020 5 (15:00) -0.2 (00:00) 2.4 20 (22:50) 11.67 (22:30) 0.2 0 0.2 0 0
18-01-2020 9 (18:20) -0.5 (-00:0) 4.3 14.44 (19:20) 7.78 (19:20) 5.2 0 0 1 4.2
17-01-2020 8.4 (14:10) -0.2 (00:00) 4.1 11.39 (12:30) 7.22 (14:10) 1 0 1 0 0
16-01-2020 13.3 (15:50) 2 (00:00) 7.7 11.11 (16:20) 6.94 (16:20) 0.4 0.2 0 0 0.2
15-01-2020 9.2 (16:50) 0.7 (00:00) 4.9 7.78 (17:30) 4.44 (17:30) 0.4 0 0 0 0.4
14-01-2020 8.1 (16:50) -2.9 (-00:0) 2.6 7.22 (16:40) 4.17 (17:00) 0 0 0 0 0
13-01-2020 6.1 (16:40) -3.7 (-00:0) 1.2 6.39 (15:30) 3.61 (15:30) 0.2 0 0.2 0 0
12-01-2020 4.6 (16:40) -4.5 (-00:0) 0 3.33 (14:30) 1.94 (13:50) 0.4 0 0.4 0 0
11-01-2020 0.6 (00:40) -3.9 (-00:0) -1.7 3.61 (00:40) 2.5 (00:30) 0 0 0 0 0
10-01-2020 7.4 (16:00) -1.3 (-00:0) 3.1 10.83 (12:20) 6.39 (13:30) 0 0 0 0 0
09-01-2020 10.5 (16:50) 0 (00:00) 5.3 8.89 (23:30) 4.72 (23:40) 0.2 0 0 0 0.2
08-01-2020 10.8 (15:50) -3.2 (-00:0) 3.8 3.06 (14:50) 2.22 (23:10) 0 0 0 0 0
07-01-2020 8.1 (16:10) -5.5 (-00:0) 1.3 4.17 (15:30) 2.5 (15:30) 0 0 0 0 0
06-01-2020 9.2 (16:10) -4.4 (-00:0) 2.4 3.61 (14:50) 2.5 (18:10) 0.2 0 0.2 0 0
05-01-2020 1.3 (15:30) -3.4 (-00:0) -1.1 3.06 (15:10) 1.67 (16:30) 0.2 0 0.2 0 0
04-01-2020 6.7 (15:40) -1.1 (-00:0) 2.8 3.33 (12:10) 1.94 (12:10) 0.2 0 0.2 0 0
03-01-2020 4 (16:10) -1.5 (-00:0) 1.3 5 (06:30) 3.06 (06:10) 0 0 0 0 0
02-01-2020 11.8 (15:10) -1.4 (-00:0) 5.2 4.17 (15:00) 2.22 (14:50) 0 0 0 0 0
01-01-2020 11.9 (15:10) -2.7 (-00:0) 4.6 2.78 (19:00) 2.5 (17:30) 0 0 0 0 0
31-12-2019 10.7 (16:40) -0.8 (-00:0) 4.9 3.61 (14:30) 2.22 (14:20) 0.2 0 0.2 0 0
30-12-2019 -- (--) -- (--) -- -- (--) -- (--) -- 0 0 0 --
29-12-2019 12.6 (15:50) -2.2 (-00:0) 5.2 2.5 (05:30) 1.94 (05:30) 0 0 0 0 0
28-12-2019 10.4 (16:30) -3.1 (-00:0) 3.6 4.17 (14:10) 2.78 (13:50) 0.2 0 0.2 0 0

Gráficas

Temp. máximas Temp. mínimas Temp. medias Precipitaciones Rachas de viento máximas Velocidades máximas media en intervalos de 10 minutos

Datos horarios

Fecha y hora oficial Temperatura (ºC) Velocidad del viento (km/h) Dirección del viento Racha (km/h) Dirección de racha Precipitación (mm) Presión (hPa) Tendencia (hPa) Humedad (%)
2020-01-26 23:00:00 3.5 3 Sudeste 5 Sudeste 0 -- -- 91
2020-01-26 22:00:00 3.6 2 Sur 6 Noroeste 0 -- -- 90
2020-01-26 21:00:00 3.6 3 Noroeste 6 Noroeste 0 -- -- 90
2020-01-26 20:00:00 3.7 2 Norte 7 Noroeste 0 -- -- 89
2020-01-26 19:00:00 4.1 6 Oeste 18 Oeste 0 -- -- 84
2020-01-26 18:00:00 5.2 7 Oeste 24 Oeste 0 -- -- 79
2020-01-26 17:00:00 6.8 15 Oeste 28 Oeste 0 -- -- 70
2020-01-26 16:00:00 6.5 7 Oeste 16 Oeste 0 -- -- 78
2020-01-26 15:00:00 5.4 7 Noroeste 17 Oeste 0 -- -- 87
2020-01-26 14:00:00 4.9 10 Oeste 16 Oeste 0 -- -- 95
2020-01-26 13:00:00 4.2 8 Oeste 18 Oeste 0 -- -- 98
2020-01-26 12:00:00 3.6 6 Oeste 15 Oeste 0 -- -- 98
2020-01-26 11:00:00 2.8 2 Noroeste 4 Noroeste 0 -- -- 98
2020-01-26 10:00:00 2.2 0 Calma 5 Noroeste 0 -- -- 98
2020-01-26 09:00:00 1.8 2 Norte 6 Noroeste 0 -- -- 98
2020-01-26 08:00:00 1.7 4 Noroeste 11 Noroeste 0 -- -- 97
2020-01-26 07:00:00 1.9 6 Noroeste 20 Oeste 0 -- -- 97
2020-01-26 06:00:00 2.9 12 Oeste 21 Oeste 0.2 -- -- 97
2020-01-26 05:00:00 3.6 7 Oeste 13 Oeste 0 -- -- 97
2020-01-26 04:00:00 3.8 4 Oeste 9 Oeste 0 -- -- 96
2020-01-26 03:00:00 4.4 6 Oeste 10 Oeste 0 -- -- 95
2020-01-26 02:00:00 4.3 0 Calma 5 Sudeste 0 -- -- 95
2020-01-26 01:00:00 4.2 3 Sudeste 5 Sudeste 0 -- -- 95
2020-01-26 00:00:00 4.3 3 Sudeste 4 Sudeste 0 -- -- 95
2020-01-25 23:00:00 4.7 0 Calma 3 Sudeste 0.2 -- -- 95
2020-01-25 22:00:00 4.7 0 Calma 6 Sudoeste 0.8 -- -- 95
2020-01-25 21:00:00 4.7 4 Sudoeste 6 Este 0.2 -- -- 94
2020-01-25 20:00:00 4.6 0 Calma 10 Noroeste 0 -- -- 92
2020-01-25 19:00:00 5.4 4 Oeste 14 Oeste 0.8 -- -- 90
2020-01-25 18:00:00 6.6 5 Norte 6 Norte 0 -- -- 89
2020-01-25 17:00:00 7.3 0 Calma 25 Oeste 0 -- -- 81
2020-01-25 16:00:00 8.2 5 Este 12 Sudeste 0 -- -- 76
2020-01-25 15:00:00 8.3 8 Sudeste 15 Sudeste 0 -- -- 76
2020-01-25 14:00:00 7.8 7 Sudeste 19 Este 0.2 -- -- 80
2020-01-25 13:00:00 6.5 12 Sudeste 23 Sudeste 0 -- -- 89
2020-01-25 12:00:00 5.4 14 Sudeste 26 Sudeste 0 -- -- 92
2020-01-25 11:00:00 4.9 15 Sudeste 30 Sudeste 0 -- -- 92
2020-01-25 10:00:00 4.2 16 Este 30 Este 0.2 -- -- 94
2020-01-25 09:00:00 3.9 16 Este 27 Sudeste 0.4 -- -- 94
2020-01-25 08:00:00 3.8 14 Este 27 Este 0.2 -- -- 92
2020-01-25 07:00:00 3.7 14 Sudeste 23 Sudeste 0 -- -- 91
2020-01-25 06:00:00 3.5 14 Sudeste 26 Sudeste 0 -- -- 92
2020-01-25 05:00:00 3.5 14 Sudeste 24 Sudeste 0 -- -- 92
2020-01-25 04:00:00 3.7 9 Este 21 Sudeste 0 -- -- 90
2020-01-25 03:00:00 4.2 11 Sudeste 21 Este 0 -- -- 90
2020-01-25 02:00:00 3.7 8 Este 15 Este 0 -- -- 90
2020-01-25 01:00:00 3.6 6 Este 14 Este 0 -- -- 90
2020-01-25 00:00:00 3.2 7 Este 17 Este 0 -- -- 91
2020-01-24 23:00:00 2.6 12 Este 16 Este 0 -- -- 91
2020-01-24 22:00:00 3.2 9 Este 14 Sudeste 0 -- -- 88
2020-01-24 21:00:00 4.6 6 Este 13 Sudeste 0 -- -- 84
2020-01-24 20:00:00 5.5 7 Sudeste 15 Sudeste 0 -- -- 81
2020-01-24 19:00:00 6.3 8 Sudeste 13 Sudeste 0 -- -- 78
2020-01-24 18:00:00 7.1 8 Sudeste 21 Sudeste 0 -- -- 75
2020-01-24 17:00:00 8 13 Sudeste 23 Este 0 -- -- 69
2020-01-24 16:00:00 8 13 Sudeste 22 Sudeste 0 -- -- 70
2020-01-24 15:00:00 7.7 12 Este 26 Este 0 -- -- 75
2020-01-24 14:00:00 7.4 14 Este 22 Este 0 -- -- 78
2020-01-24 13:00:00 6.7 12 Sudeste 21 Sudeste 0 -- -- 79
2020-01-24 12:00:00 6.3 12 Sudeste 24 Este 0 -- -- 79
2020-01-24 11:00:00 6 12 Sudeste 26 Este 0 -- -- 81
2020-01-24 10:00:00 5 14 Este 23 Este 0 -- -- 85
2020-01-24 09:00:00 3.3 12 Este 24 Este 0 -- -- 89
2020-01-24 08:00:00 3.6 13 Este 24 Este 0 -- -- 88
2020-01-24 07:00:00 4 10 Este 23 Este 0 -- -- 86
2020-01-24 06:00:00 4.1 13 Este 21 Este 0 -- -- 87
2020-01-24 05:00:00 4 10 Este 21 Este 0 -- -- 87
2020-01-24 04:00:00 4 11 Este 28 Este 0 -- -- 87
2020-01-24 03:00:00 3.6 13 Este 24 Este 0 -- -- 88
2020-01-24 02:00:00 3.4 16 Este 29 Sudeste 0 -- -- 88
2020-01-24 01:00:00 3.4 17 Este 27 Sudeste 0 -- -- 87
2020-01-24 00:00:00 3.1 17 Este 27 Este 0 -- -- 88
2020-01-23 23:00:00 3.1 13 Este 24 Este 0 -- -- 87
2020-01-23 22:00:00 3.1 15 Este 28 Este 0 -- -- 86
2020-01-23 21:00:00 3.8 17 Sudeste 28 Sudeste 0 -- -- 81
2020-01-23 20:00:00 4.3 17 Sudeste 27 Este 0 -- -- 81
2020-01-23 19:00:00 5.1 17 Sudeste 37 Sudeste 0 -- -- 79
2020-01-23 18:00:00 6.4 10 Este 15 Este 0 -- -- 75
2020-01-23 17:00:00 8.4 9 Sudeste 16 Sudeste 0 -- -- 65
2020-01-23 16:00:00 9.3 7 Sur 22 Sudeste 0 -- -- 61
2020-01-23 15:00:00 8.6 8 Sudeste 23 Este 0 -- -- 65
2020-01-23 14:00:00 7.2 13 Sudeste 25 Sudeste 0 -- -- 70
2020-01-23 13:00:00 6.2 15 Este 26 Este 0 -- -- 77
2020-01-23 12:00:00 4.7 14 Sudeste 31 Sudeste 0 -- -- 80
2020-01-23 11:00:00 3.6 17 Este 31 Este 0 -- -- 86
2020-01-23 10:00:00 2.8 14 Sudeste 31 Sudeste 0 -- -- 89
2020-01-23 09:00:00 2.5 13 Este 28 Este 0 -- -- 90
2020-01-23 08:00:00 2.8 7 Sudeste 23 Este 0 -- -- 90
2020-01-23 07:00:00 2.7 9 Este 26 Este 0 -- -- 90
2020-01-23 06:00:00 2.7 9 Este 23 Nordeste 0 -- -- 89
2020-01-23 05:00:00 2.4 11 Este 25 Este 0 -- -- 91
2020-01-23 04:00:00 2.9 15 Sudeste 32 Sudeste 0 -- -- 90
2020-01-23 03:00:00 2.4 11 Sudeste 27 Sudeste 0 -- -- 91
2020-01-23 02:00:00 2.4 15 Sudeste 25 Sudeste 0 -- -- 90
2020-01-23 01:00:00 2.5 15 Sudeste 27 Sudeste 0 -- -- 89
2020-01-23 00:00:00 2.7 11 Sudeste 20 Sudeste 0 -- -- 88
2020-01-22 23:00:00 3.4 12 Este 23 Este 0 -- -- 85
2020-01-22 22:00:00 3.6 4 Este 10 Sudeste 0 -- -- 89
2020-01-22 21:00:00 3.6 2 Sudeste 14 Este 0 -- -- 88
2020-01-22 20:00:00 2.7 6 Este 14 Sudeste 0 -- -- 88
2020-01-22 19:00:00 3.9 8 Sudeste 15 Sudeste 0 -- -- 84
2020-01-22 18:00:00 5.3 11 Sudeste 30 Sudeste 0 -- -- 82
2020-01-22 17:00:00 6.4 18 Sudeste 27 Sudeste 0 -- -- 77
2020-01-22 16:00:00 7.6 13 Sudeste 28 Sudeste 0 -- -- 71
2020-01-22 15:00:00 7.6 17 Sudeste 30 Este 0 -- -- 72
2020-01-22 14:00:00 7.6 22 Sudeste 32 Sudeste 0 -- -- 72
2020-01-22 13:00:00 6.6 19 Sudeste 35 Sudeste 0 -- -- 78
2020-01-22 12:00:00 6.4 20 Sudeste 32 Sudeste 0 -- -- 76
2020-01-22 11:00:00 5.2 15 Sudeste 26 Sudeste 0 -- -- 79
2020-01-22 10:00:00 3.5 9 Sudeste 15 Este 0 -- -- 85
2020-01-22 09:00:00 3.1 10 Sudeste 17 Este 0 -- -- 85
2020-01-22 08:00:00 3.3 8 Sudeste 16 Este 0 -- -- 84
2020-01-22 07:00:00 3 6 Sudeste 14 Sudeste 0 -- -- 84
2020-01-22 06:00:00 3.2 6 Sudeste 18 Este 0 -- -- 82
2020-01-22 05:00:00 3.9 12 Este 24 Este 0 -- -- 78
2020-01-22 04:00:00 4.3 14 Este 39 Este 0 -- -- 76
2020-01-22 03:00:00 4.7 17 Este 28 Este 0 -- -- 77
2020-01-22 02:00:00 4.7 15 Este 29 Este 0 -- -- 83
2020-01-22 01:00:00 5.2 13 Este 41 Este 0 -- -- 79
2020-01-22 00:00:00 5.5 21 Este 41 Este 0 -- -- 78
2020-01-21 23:00:00 5.9 26 Este 49 Este 0 -- -- 77
2020-01-21 22:00:00 6.4 26 Este 53 Nordeste 0 -- -- 73
2020-01-21 21:00:00 7.2 32 Este 56 Este 0.2 -- -- 69
2020-01-21 20:00:00 7.5 26 Este 53 Nordeste 0 -- -- 66
2020-01-21 19:00:00 7.8 28 Este 55 Este 0 -- -- 65
2020-01-21 18:00:00 5.1 10 Nordeste 22 Nordeste 0 -- -- 71
2020-01-21 17:00:00 4.8 14 Nordeste 27 Nordeste 0 -- -- 73
2020-01-21 16:00:00 4.9 15 Nordeste 41 Este 0 -- -- 78
2020-01-21 15:00:00 6.8 21 Este 53 Este 0 -- -- 66
2020-01-21 14:00:00 6.6 17 Este 41 Este 0 -- -- 67
2020-01-21 13:00:00 5.4 10 Nordeste 22 Nordeste 0 -- -- 68
2020-01-21 12:00:00 4 13 Nordeste 20 Nordeste 0 -- -- 73
2020-01-21 11:00:00 1.9 13 Norte 24 Norte 0 -- -- 82
2020-01-21 10:00:00 1.3 13 Norte 19 Norte 0.2 -- -- 87
2020-01-21 09:00:00 1.3 16 Norte 28 Norte 0 -- -- 77
2020-01-21 08:00:00 1.2 6 Norte 17 Norte 0 -- -- 83
2020-01-21 07:00:00 1.2 8 Norte 22 Nordeste 0 -- -- 88
2020-01-21 06:00:00 2 13 Nordeste 21 Nordeste 0 -- -- 84
2020-01-21 05:00:00 2.4 7 Nordeste 17 Nordeste 0 -- -- 67
2020-01-21 04:00:00 1.4 6 Nordeste 17 Nordeste 0 -- -- 68
2020-01-21 03:00:00 1.1 10 Nordeste 18 Nordeste 0 -- -- 68
2020-01-21 02:00:00 0.2 6 Norte 21 Nordeste 0 -- -- 69
2020-01-21 01:00:00 -0.2 12 Norte 18 Nordeste 0 -- -- 70
2020-01-21 00:00:00 -0.5 8 Nordeste 13 Nordeste 0 -- -- 69
2020-01-20 23:00:00 0 6 Norte 14 Nordeste 0 -- -- 66
2020-01-20 22:00:00 0.2 4 Norte 17 Norte 0 -- -- 65
2020-01-20 21:00:00 0.5 9 Norte 22 Nordeste 0 -- -- 63
2020-01-20 20:00:00 0.5 13 Norte 20 Norte 0 -- -- 62
2020-01-20 19:00:00 0.4 13 Norte 31 Nordeste 0 -- -- 63
2020-01-20 18:00:00 1.2 19 Nordeste 31 Nordeste 0 -- -- 56
2020-01-20 17:00:00 1.1 19 Nordeste 30 Nordeste 0 -- -- 58
2020-01-20 16:00:00 2.1 19 Norte 31 Nordeste 0 -- -- 53
2020-01-20 15:00:00 3.2 21 Nordeste 30 Norte 0 -- -- 46
2020-01-20 14:00:00 2.6 20 Norte 29 Nordeste 0 -- -- 48
2020-01-20 13:00:00 1.6 14 Norte 32 Nordeste 0 -- -- 52
2020-01-20 12:00:00 0.8 18 Nordeste 29 Norte 0 -- -- 52
2020-01-20 11:00:00 0.3 16 Norte 33 Nordeste 0 -- -- 53
2020-01-20 10:00:00 -0.2 13 Norte 19 Norte 0 -- -- 49
2020-01-20 09:00:00 -3.5 2 Sudeste 12 Este 0 -- -- 59
2020-01-20 08:00:00 -3.1 4 Sudoeste 12 Sur 0 -- -- 60
2020-01-20 07:00:00 -4.3 6 Sur 10 Sudoeste 0 -- -- 67
2020-01-20 06:00:00 -2.9 4 Este 22 Nordeste 0 -- -- 58
2020-01-20 05:00:00 -0.9 14 Nordeste 30 Nordeste 0 -- -- 48
2020-01-20 04:00:00 -2 5 Noroeste 26 Norte 0 -- -- 58
2020-01-20 03:00:00 -0.8 13 Nordeste 27 Norte 0 -- -- 48
2020-01-20 02:00:00 -0.5 16 Nordeste 33 Nordeste 0 -- -- 49
2020-01-20 01:00:00 -0.5 8 Nordeste 36 Nordeste 0 -- -- 50
2020-01-20 00:00:00 -0.2 17 Nordeste 58 Nordeste 0 -- -- 53
2020-01-19 23:00:00 0.1 36 Nordeste 72 Nordeste 0 -- -- 54
2020-01-19 22:00:00 0 25 Nordeste 56 Nordeste 0 -- -- 59
2020-01-19 21:00:00 0.2 25 Nordeste 45 Norte 0 -- -- 59
2020-01-19 20:00:00 0.3 23 Norte 49 Norte 0 -- -- 57
2020-01-19 19:00:00 0.7 25 Norte 47 Nordeste 0 -- -- 56
2020-01-19 18:00:00 1.5 23 Norte 48 Norte 0 -- -- 54
2020-01-19 17:00:00 2.9 27 Norte 53 Norte 0 -- -- 54
2020-01-19 16:00:00 4.3 28 Norte 52 Norte 0 -- -- 51
2020-01-19 15:00:00 5 29 Norte 51 Norte 0 -- -- 49
2020-01-19 14:00:00 4 27 Norte 50 Norte 0 -- -- 55
2020-01-19 13:00:00 3.9 30 Norte 50 Norte 0 -- -- 53
2020-01-19 12:00:00 3.6 24 Norte 51 Norte 0 -- -- 60
2020-01-19 11:00:00 3.9 28 Norte 51 Norte 0 -- -- 54
2020-01-19 10:00:00 3.4 26 Norte 51 Norte 0.2 -- -- 68
2020-01-19 09:00:00 3.1 25 Norte 49 Norte 0 -- -- 78
2020-01-19 08:00:00 3.2 20 Norte 31 Norte 0 -- -- 86
2020-01-19 07:00:00 2.6 17 Noroeste 29 Noroeste 0 -- -- 93
2020-01-19 06:00:00 2.9 20 Noroeste 35 Noroeste 0 -- -- 91
2020-01-19 05:00:00 2.9 19 Noroeste 35 Noroeste 0 -- -- 90
2020-01-19 04:00:00 3.3 21 Noroeste 38 Noroeste 0 -- -- 89
2020-01-19 03:00:00 2.2 10 Norte 17 Norte 0 -- -- 91
2020-01-19 02:00:00 2.2 6 Noroeste 9 Noroeste 0 -- -- 94
2020-01-19 01:00:00 2.1 2 Norte 8 Oeste 0 -- -- 95
2020-01-19 00:00:00 2.6 2 Noroeste 6 Norte 0 -- -- 94
2020-01-18 23:00:00 3.5 3 Noroeste 13 Noroeste 0 -- -- 92
2020-01-18 22:00:00 4.1 7 Noroeste 28 Noroeste 0 -- -- 92
2020-01-18 21:00:00 5.1 16 Noroeste 30 Oeste 0 -- -- 92
2020-01-18 20:00:00 4.4 9 Oeste 52 Oeste 4 -- -- 93
2020-01-18 19:00:00 8.8 19 Sudoeste 36 Sudoeste 0.2 -- -- 85
2020-01-18 18:00:00 8.9 13 Sudoeste 31 Sudoeste 0 -- -- 87
2020-01-18 17:00:00 7.8 6 Sur 13 Sur 0.2 -- -- 96
2020-01-18 16:00:00 7 8 Sudeste 14 Sudeste 0.2 -- -- 96
2020-01-18 15:00:00 6 7 Sudeste 18 Sudeste 0.2 -- -- 95
2020-01-18 14:00:00 5.4 10 Sudeste 18 Este 0.2 -- -- 94
2020-01-18 13:00:00 5.1 9 Sudeste 21 Este 0.2 -- -- 90
2020-01-18 12:00:00 4.8 8 Sudeste 18 Sudeste 0 -- -- 84
2020-01-18 11:00:00 4 9 Este 17 Este 0 -- -- 80
2020-01-18 10:00:00 2.3 5 Sudeste 14 Sudeste 0 -- -- 86
2020-01-18 09:00:00 1.9 13 Sudeste 18 Sudeste 0 -- -- 87
2020-01-18 08:00:00 1.5 5 Sudeste 14 Este 0 -- -- 89
2020-01-18 07:00:00 1 5 Este 14 Sudeste 0 -- -- 92
2020-01-18 06:00:00 0.8 5 Sudeste 13 Sudeste 0 -- -- 92
2020-01-18 05:00:00 0.6 0 Calma 12 Este 0 -- -- 93
2020-01-18 04:00:00 -0.1 2 Nordeste 10 Sur 0 -- -- 93
2020-01-18 03:00:00 -0.2 6 Sur 12 Nordeste 0 -- -- 93
2020-01-18 02:00:00 -0.4 7 Nordeste 13 Este 0 -- -- 92
2020-01-18 01:00:00 -0.3 2 Nordeste 6 Nordeste 0 -- -- 92
2020-01-18 00:00:00 0 5 Sur 6 Sudeste 0 -- -- 91
2020-01-17 23:00:00 0.4 7 Este 9 Nordeste 0 -- -- 91
2020-01-17 22:00:00 1.8 3 Este 8 Este 0 -- -- 85
2020-01-17 21:00:00 2.7 3 Sur 5 Noroeste 0 -- -- 83
2020-01-17 20:00:00 3.7 3 Noroeste 7 Noroeste 0 -- -- 80
2020-01-17 19:00:00 4.7 6 Oeste 18 Oeste 0 -- -- 77
2020-01-17 18:00:00 5.5 9 Oeste 27 Oeste 0 -- -- 76
2020-01-17 17:00:00 6.5 13 Oeste 28 Oeste 0 -- -- 72
2020-01-17 16:00:00 7.2 19 Oeste 36 Oeste 0 -- -- 64
2020-01-17 15:00:00 7.7 24 Oeste 41 Oeste 0 -- -- 63
2020-01-17 14:00:00 8.2 20 Oeste 39 Noroeste 0 -- -- 66
2020-01-17 13:00:00 7.3 26 Oeste 41 Oeste 0 -- -- 72
2020-01-17 12:00:00 5.8 20 Oeste 37 Oeste 0 -- -- 85
2020-01-17 11:00:00 5.7 23 Oeste 36 Oeste 0 -- -- 93
2020-01-17 10:00:00 4.9 14 Oeste 28 Sudoeste 0.4 -- -- 95
2020-01-17 09:00:00 4.7 13 Sudoeste 29 Oeste 0.4 -- -- 94
2020-01-17 08:00:00 4.9 16 Oeste 29 Sudoeste 0 -- -- 91
2020-01-17 07:00:00 5.1 9 Sudoeste 20 Sudoeste 0.2 -- -- 90
2020-01-17 06:00:00 5.2 6 Sudoeste 13 Sudoeste 0 -- -- 88
2020-01-17 05:00:00 5.4 4 Oeste 14 Oeste 0 -- -- 87
2020-01-17 04:00:00 5.4 6 Sudoeste 10 Sudoeste 0 -- -- 86
2020-01-17 03:00:00 6 5 Oeste 12 Oeste 0 -- -- 83
2020-01-17 02:00:00 6 4 Sur 12 Sudoeste 0 -- -- 82
2020-01-17 01:00:00 6.2 6 Sur 15 Sudoeste 0 -- -- 79
2020-01-17 00:00:00 6.4 0 Calma 26 Oeste 0 -- -- 78
2020-01-16 23:00:00 6.6 7 Oeste 18 Sudoeste 0.2 -- -- 75
2020-01-16 22:00:00 6.2 4 Sudoeste 10 Sudeste 0 -- -- 71
2020-01-16 21:00:00 6.7 4 Sudeste 12 Sudeste 0 -- -- 68
2020-01-16 20:00:00 7.6 7 Sudeste 19 Sur 0 -- -- 67
2020-01-16 19:00:00 8.3 12 Sur 19 Sur 0 -- -- 63
2020-01-16 18:00:00 9.9 15 Sudoeste 28 Sudoeste 0 -- -- 52
2020-01-16 17:00:00 12 17 Sudoeste 40 Sudoeste 0 -- -- 52
2020-01-16 16:00:00 13.2 19 Sudoeste 33 Sur 0 -- -- 56
2020-01-16 15:00:00 11.7 4 Sur 11 Sur 0 -- -- 68
2020-01-16 14:00:00 10.7 4 Oeste 16 Sur 0 -- -- 74
2020-01-16 13:00:00 10.3 7 Sudeste 13 Sur 0 -- -- 75
2020-01-16 12:00:00 7.5 4 Sudeste 16 Este 0 -- -- 86
2020-01-16 11:00:00 6.4 8 Este 16 Este 0 -- -- 88
2020-01-16 10:00:00 5 3 Norte 20 Este 0 -- -- 91
2020-01-16 09:00:00 3.4 8 Este 18 Este 0 -- -- 94
2020-01-16 08:00:00 2.5 3 Este 11 Este 0 -- -- 96
2020-01-16 07:00:00 2.7 7 Este 12 Este 0 -- -- 94
2020-01-16 06:00:00 2.7 3 Este 15 Este 0 -- -- 94
2020-01-16 05:00:00 3.2 7 Este 15 Este 0 -- -- 94
2020-01-16 04:00:00 2.8 6 Este 17 Este 0.2 -- -- 93
2020-01-16 03:00:00 2.8 2 Nordeste 15 Este 0 -- -- 92
2020-01-16 02:00:00 3.8 8 Este 13 Este 0 -- -- 92
2020-01-16 01:00:00 4.6 8 Sudeste 12 Sudeste 0 -- -- 91
2020-01-16 00:00:00 4.9 4 Sudeste 10 Sudeste 0 -- -- 91
2020-01-15 23:00:00 5.7 5 Sudeste 9 Sudeste 0 -- -- 92
2020-01-15 22:00:00 6.3 2 Sudeste 6 Sudeste 0 -- -- 92
2020-01-15 21:00:00 6.6 0 Calma 5 Noroeste 0.4 -- -- 90
2020-01-15 20:00:00 7 3 Este 7 Este 0 -- -- 86
2020-01-15 19:00:00 7.7 2 Noroeste 10 Oeste 0 -- -- 83
2020-01-15 18:00:00 8.3 4 Oeste 28 Sudoeste 0 -- -- 80
2020-01-15 17:00:00 9.2 11 Oeste 21 Oeste 0 -- -- 76
2020-01-15 16:00:00 8.9 4 Oeste 15 Sudoeste 0 -- -- 76
2020-01-15 15:00:00 8.1 8 Oeste 15 Oeste 0 -- -- 77
2020-01-15 14:00:00 8 3 Sur 11 Sudeste 0 -- -- 75
2020-01-15 13:00:00 6.3 4 Nordeste 8 Nordeste 0 -- -- 84
2020-01-15 12:00:00 6.1 6 Sudeste 12 Este 0 -- -- 78
2020-01-15 11:00:00 5.1 6 Este 17 Este 0 -- -- 81
2020-01-15 10:00:00 3.3 6 Sudeste 19 Sudeste 0 -- -- 85
2020-01-15 09:00:00 2.9 10 Sudeste 17 Este 0 -- -- 87
2020-01-15 08:00:00 1.4 5 Este 10 Este 0 -- -- 92
2020-01-15 07:00:00 0.8 4 Norte 16 Sudeste 0 -- -- 88
2020-01-15 06:00:00 1.3 6 Sudeste 14 Sudeste 0 -- -- 87
2020-01-15 05:00:00 1.4 10 Este 15 Este 0 -- -- 85
2020-01-15 04:00:00 2.2 3 Este 12 Este 0 -- -- 83
2020-01-15 03:00:00 1.9 8 Este 15 Sudeste 0 -- -- 84
2020-01-15 02:00:00 1.6 4 Este 9 Este 0 -- -- 86
2020-01-15 01:00:00 1.5 5 Sudeste 18 Este 0 -- -- 86
2020-01-15 00:00:00 1.5 9 Sudeste 14 Este 0 -- -- 86
2020-01-14 23:00:00 2 4 Este 9 Este 0 -- -- 85
2020-01-14 22:00:00 2.1 4 Este 10 Sudeste 0 -- -- 85
2020-01-14 21:00:00 2.2 6 Sudeste 12 Sudeste 0 -- -- 84
2020-01-14 20:00:00 3.2 8 Sudeste 10 Sudeste 0 -- -- 80
2020-01-14 19:00:00 4.3 4 Sudeste 8 Sudeste 0 -- -- 76
2020-01-14 18:00:00 6.3 3 Sudeste 20 Sudoeste 0 -- -- 69
2020-01-14 17:00:00 8 15 Sudoeste 26 Oeste 0 -- -- 64
2020-01-14 16:00:00 7.2 10 Oeste 24 Oeste 0 -- -- 67
2020-01-14 15:00:00 7.1 10 Oeste 21 Oeste 0 -- -- 67
2020-01-14 14:00:00 5.3 3 Sudeste 12 Sudeste 0 -- -- 74
2020-01-14 13:00:00 4.5 5 Sudeste 15 Sudeste 0 -- -- 75
2020-01-14 12:00:00 3.1 9 Sudeste 16 Sudeste 0 -- -- 83
2020-01-14 11:00:00 1.4 6 Sur 10 Sudeste 0 -- -- 90
2020-01-14 10:00:00 0.1 0 Calma 5 Sudeste 0 -- -- 93
2020-01-14 09:00:00 -0.8 4 Sudeste 7 Sudeste 0 -- -- 93
2020-01-14 08:00:00 -0.5 0 Calma 3 Oeste 0 -- -- 90
2020-01-14 07:00:00 -0.2 2 Sudeste 3 Sudeste 0 -- -- 91
2020-01-14 06:00:00 -1 2 Nordeste 4 Noroeste 0 -- -- 91
2020-01-14 05:00:00 -1.2 3 Norte 4 Nordeste 0 -- -- 92
2020-01-14 04:00:00 -1.5 2 Norte 6 Nordeste 0 -- -- 92
2020-01-14 03:00:00 -2.7 3 Norte 5 Norte 0 -- -- 90
2020-01-14 02:00:00 -2.8 3 Norte 6 Sudeste 0 -- -- 90
2020-01-14 01:00:00 -1.5 4 Sur 6 Norte 0 -- -- 92
2020-01-14 00:00:00 -1.9 4 Este 6 Este 0 -- -- 92
2020-01-13 23:00:00 -1.4 4 Sudeste 8 Sudeste 0 -- -- 91
2020-01-13 22:00:00 -1.1 2 Noroeste 6 Norte 0 -- -- 88
2020-01-13 21:00:00 -1 4 Norte 12 Este 0 -- -- 88
2020-01-13 20:00:00 0.7 8 Nordeste 10 Nordeste 0 -- -- 84
2020-01-13 19:00:00 1.8 4 Nordeste 7 Nordeste 0 -- -- 82
2020-01-13 18:00:00 4.6 0 Calma 11 Noroeste 0 -- -- 72
2020-01-13 17:00:00 6 8 Oeste 16 Oeste 0 -- -- 66
2020-01-13 16:00:00 5.8 9 Oeste 23 Sudoeste 0 -- -- 65
2020-01-13 15:00:00 5.4 10 Oeste 20 Oeste 0 -- -- 63
2020-01-13 14:00:00 4.7 5 Oeste 12 Sur 0 -- -- 67
2020-01-13 13:00:00 3.8 6 Sur 12 Sur 0 -- -- 77
2020-01-13 12:00:00 2 4 Sudeste 12 Sudeste 0.2 -- -- 92
2020-01-13 11:00:00 -0.6 5 Sudeste 8 Sudeste 0 -- -- 96
2020-01-13 10:00:00 -2 5 Sudeste 7 Sudeste 0 -- -- 97
2020-01-13 09:00:00 -3.5 3 Nordeste 6 Sudeste 0 -- -- 97
2020-01-13 08:00:00 -3 3 Este 5 Este 0 -- -- 97
2020-01-13 07:00:00 -2.4 4 Sudeste 9 Sudeste 0 -- -- 97
2020-01-13 06:00:00 -3.1 3 Sudeste 5 Sudeste 0 -- -- 97
2020-01-13 05:00:00 -3.2 3 Este 4 Sudeste 0 -- -- 98
2020-01-13 04:00:00 -3.6 0 Calma 4 Este 0 -- -- 96
2020-01-13 03:00:00 -2.5 0 Calma 6 Este 0 -- -- 96
2020-01-13 02:00:00 -2.4 3 Este 4 Este 0 -- -- 97
2020-01-13 01:00:00 -2.5 0 Calma 6 Este 0 -- -- 96
2020-01-13 00:00:00 -1.8 0 Calma 5 Este 0 -- -- 96
2020-01-12 23:00:00 -1.7 0 Calma 6 Sudeste 0 -- -- 95
2020-01-12 22:00:00 -0.9 0 Calma 5 Nordeste 0 -- -- 94
2020-01-12 21:00:00 -0.1 3 Nordeste 5 Nordeste 0 -- -- 94
2020-01-12 20:00:00 1.1 0 Calma 5 Oeste 0 -- -- 92
2020-01-12 19:00:00 1.9 3 Oeste 6 Oeste 0 -- -- 89
2020-01-12 18:00:00 3.1 3 Noroeste 10 Noroeste 0 -- -- 85
2020-01-12 17:00:00 4.6 6 Noroeste 10 Noroeste 0 -- -- 80
2020-01-12 16:00:00 4 5 Oeste 11 Oeste 0 -- -- 84
2020-01-12 15:00:00 3.1 7 Noroeste 12 Oeste 0 -- -- 96
2020-01-12 14:00:00 1.5 6 Noroeste 12 Oeste 0 -- -- 98
2020-01-12 13:00:00 0.6 5 Sudoeste 8 Sudoeste 0 -- -- 98
2020-01-12 12:00:00 -0.4 0 Calma 4 Sur 0.4 -- -- 98
2020-01-12 11:00:00 -1.5 0 Calma -- -- 0 -- -- 97
2020-01-12 10:00:00 -2.4 0 Calma -- -- 0 -- -- 97
2020-01-12 09:00:00 -2.4 0 Calma -- -- 0 -- -- 97
2020-01-12 08:00:00 -2.2 0 Calma -- -- 0 -- -- 97
2020-01-12 07:00:00 -2.2 0 Calma -- -- 0 -- -- 97
2020-01-12 06:00:00 -2.4 0 Calma -- -- 0 -- -- 97
2020-01-12 05:00:00 -2.9 0 Calma -- -- 0 -- -- 97
2020-01-12 04:00:00 -3.7 0 Calma -- -- 0 -- -- 96
2020-01-12 03:00:00 -4.3 0 Calma -- -- 0 -- -- 96
2020-01-12 02:00:00 -4.4 0 Calma -- -- 0 -- -- 96
2020-01-12 01:00:00 -4.3 0 Calma -- -- 0 -- -- 96
2020-01-12 00:00:00 -3.6 0 Calma -- -- 0 -- -- 97
2020-01-11 23:00:00 -3.3 0 Calma -- -- 0 -- -- 97
2020-01-11 22:00:00 -3 0 Calma -- -- 0 -- -- 97
2020-01-11 21:00:00 -2.5 0 Calma -- -- 0 -- -- 97
2020-01-11 20:00:00 -1.9 0 Calma 10 Oeste 0 -- -- 97
2020-01-11 19:00:00 -1.8 4 Noroeste 10 Noroeste 0 -- -- 97
2020-01-11 18:00:00 -1.6 5 Noroeste 11 Oeste 0 -- -- 96
2020-01-11 17:00:00 -0.5 5 Oeste 13 Oeste 0 -- -- 96
2020-01-11 16:00:00 0.1 7 Oeste 13 Oeste 0 -- -- 96
2020-01-11 15:00:00 0.2 5 Oeste 9 Oeste 0 -- -- 97
2020-01-11 14:00:00 -0.2 4 Noroeste 8 Oeste 0 -- -- 97
2020-01-11 13:00:00 -1 5 Noroeste 9 Noroeste 0 -- -- 97
2020-01-11 12:00:00 -1.5 0 Calma -- -- 0 -- -- 97
2020-01-11 11:00:00 -2.7 0 Calma -- -- 0 -- -- 97
2020-01-11 10:00:00 -3.4 0 Calma 2 Sur 0 -- -- 97
2020-01-11 09:00:00 -3.6 0 Calma 5 Sur 0 -- -- 96
2020-01-11 08:00:00 -3.7 0 Calma 3 Norte 0 -- -- 96
2020-01-11 07:00:00 -3.4 0 Calma 4 Noroeste 0 -- -- 96
2020-01-11 06:00:00 -3.7 0 Calma 4 Norte 0 -- -- 95
2020-01-11 05:00:00 -2.5 0 Calma 4 Sur 0 -- -- 95
2020-01-11 04:00:00 -2.3 2 Sudoeste 6 Oeste 0 -- -- 94
2020-01-11 03:00:00 -1.5 4 Sudoeste 9 Sudoeste 0 -- -- 91
2020-01-11 02:00:00 -0.9 0 Calma 9 Sudoeste 0 -- -- 89
2020-01-11 01:00:00 0.4 4 Norte 13 Oeste 0 -- -- 87
2020-01-11 00:00:00 -0.6 4 Sudoeste 10 Norte 0 -- -- 91
2020-01-10 23:00:00 1.4 5 Oeste 17 Norte 0 -- -- 87
2020-01-10 22:00:00 1.5 6 Nordeste 13 Sudoeste 0 -- -- 81
2020-01-10 21:00:00 2.2 4 Sur 12 Oeste 0 -- -- 79
2020-01-10 20:00:00 2.1 3 Oeste 12 Noroeste 0 -- -- 80
2020-01-10 19:00:00 3.1 9 Noroeste 14 Noroeste 0 -- -- 79
2020-01-10 18:00:00 5.1 3 Noroeste 22 Noroeste 0 -- -- 69
2020-01-10 17:00:00 6.5 6 Norte 34 Norte 0 -- -- 65
2020-01-10 16:00:00 7.4 13 Norte 23 Norte 0 -- -- 62
2020-01-10 15:00:00 6.5 13 Norte 30 Noroeste 0 -- -- 63
2020-01-10 14:00:00 6.5 20 Norte 34 Norte 0 -- -- 60
2020-01-10 13:00:00 5.8 21 Norte 39 Norte 0 -- -- 68
2020-01-10 12:00:00 5.5 21 Norte 30 Norte 0 -- -- 68
2020-01-10 11:00:00 3.6 13 Noroeste 20 Noroeste 0 -- -- 77
2020-01-10 10:00:00 2.2 13 Noroeste 23 Oeste 0 -- -- 82
2020-01-10 09:00:00 -0.6 8 Norte 12 Noroeste 0 -- -- 95
2020-01-10 08:00:00 -1.2 2 Oeste 8 Noroeste 0 -- -- 95
2020-01-10 07:00:00 -1.2 5 Noroeste 10 Noroeste 0 -- -- 94
2020-01-10 06:00:00 -0.5 5 Oeste 15 Sudoeste 0 -- -- 92
2020-01-10 05:00:00 0.4 9 Oeste 15 Oeste 0 -- -- 91
2020-01-10 04:00:00 0.5 4 Oeste 10 Noroeste 0 -- -- 89
2020-01-10 03:00:00 0.9 7 Oeste 14 Oeste 0 -- -- 87
2020-01-10 02:00:00 1.7 7 Oeste 10 Oeste 0 -- -- 86
2020-01-10 01:00:00 3.2 7 Noroeste 25 Oeste 0 -- -- 86
2020-01-10 00:00:00 5.2 14 Oeste 32 Noroeste 0 -- -- 84
2020-01-09 23:00:00 6 6 Noroeste 20 Oeste 0 -- -- 93
2020-01-09 22:00:00 7.5 12 Oeste 24 Oeste 0 -- -- 92
2020-01-09 21:00:00 7.6 8 Sudoeste 17 Oeste 0 -- -- 93
2020-01-09 20:00:00 7.6 6 Sudoeste 12 Oeste 0 -- -- 92
2020-01-09 19:00:00 8.1 8 Oeste 20 Oeste 0.2 -- -- 90
2020-01-09 18:00:00 9.2 10 Oeste 21 Oeste 0 -- -- 81
2020-01-09 17:00:00 10.4 13 Oeste 22 Sudoeste 0 -- -- 74
2020-01-09 16:00:00 9.6 12 Oeste 22 Oeste 0 -- -- 76
2020-01-09 15:00:00 7.5 7 Oeste 13 Noroeste 0 -- -- 83
2020-01-09 14:00:00 6.9 7 Oeste 15 Oeste 0 -- -- 84
2020-01-09 13:00:00 7.1 5 Sudoeste 12 Oeste 0 -- -- 79
2020-01-09 12:00:00 4.7 5 Norte 9 Norte 0 -- -- 90
2020-01-09 11:00:00 3.8 0 Calma 5 Sudeste 0 -- -- 93
2020-01-09 10:00:00 1.9 3 Sur 9 Sudeste 0 -- -- 95
2020-01-09 09:00:00 0 3 Nordeste 8 Sudeste 0 -- -- 95
2020-01-09 08:00:00 0.5 4 Sudeste 10 Sudeste 0 -- -- 95
2020-01-09 07:00:00 0.8 3 Sudeste 8 Sudeste 0 -- -- 95
2020-01-09 06:00:00 0.7 2 Norte 6 Sudeste 0 -- -- 94
2020-01-09 05:00:00 1.1 4 Este 6 Este 0 -- -- 94
2020-01-09 04:00:00 1.7 5 Este 8 Sudeste 0 -- -- 93
2020-01-09 03:00:00 2 4 Este 6 Este 0 -- -- 93
2020-01-09 02:00:00 2.4 3 Sur 4 Sudoeste 0 -- -- 90
2020-01-09 01:00:00 3.2 2 Sur 5 Sudoeste 0 -- -- 91
2020-01-09 00:00:00 3.1 3 Sudoeste 10 Este 0 -- -- 89
2020-01-08 23:00:00 2.9 5 Este 10 Este 0 -- -- 90
2020-01-08 22:00:00 3.1 3 Este 6 Este 0 -- -- 90
2020-01-08 21:00:00 4.4 2 Nordeste 3 Nordeste 0 -- -- 86
2020-01-08 20:00:00 6.1 0 Calma 2 Norte 0 -- -- 80
2020-01-08 19:00:00 7.5 0 Calma 8 Oeste 0 -- -- 76
2020-01-08 18:00:00 8.5 8 Oeste 9 Oeste 0 -- -- 71
2020-01-08 17:00:00 10.3 3 Noroeste 6 Noroeste 0 -- -- 66
2020-01-08 16:00:00 10.6 4 Noroeste 8 Oeste 0 -- -- 63
2020-01-08 15:00:00 10.3 5 Sudoeste 11 Sudoeste 0 -- -- 63
2020-01-08 14:00:00 8.9 3 Sudoeste 10 Sudoeste 0 -- -- 66
2020-01-08 13:00:00 6.3 4 Sur 8 Sur 0 -- -- 73
2020-01-08 12:00:00 3 3 Norte 6 Norte 0 -- -- 87
2020-01-08 11:00:00 0.6 0 Calma 7 Oeste 0 -- -- 96
2020-01-08 10:00:00 -2 4 Sudoeste 6 Sudoeste 0 -- -- 96
2020-01-08 09:00:00 -3.1 0 Calma 4 Sudoeste 0 -- -- 95
2020-01-08 08:00:00 -2.9 0 Calma 2 Sur 0 -- -- 95
2020-01-08 07:00:00 -2.5 0 Calma 4 Sudeste 0 -- -- 95
2020-01-08 06:00:00 -2.3 0 Calma 5 Este 0 -- -- 95
2020-01-08 05:00:00 -2.2 3 Sudeste 5 Este 0 -- -- 95
2020-01-08 04:00:00 -2.3 0 Calma 4 Sudoeste 0 -- -- 95
2020-01-08 03:00:00 -2 0 Calma 4 Nordeste 0 -- -- 95
2020-01-08 02:00:00 -2.4 0 Calma 4 Nordeste 0 -- -- 95
2020-01-08 01:00:00 -1.2 3 Noroeste 5 Sudoeste 0 -- -- 94
2020-01-08 00:00:00 -0.3 0 Calma 3 Sur 0 -- -- 92
2020-01-07 23:00:00 0.7 0 Calma 8 Sudoeste 0 -- -- 92
2020-01-07 22:00:00 1.1 4 Sudoeste 6 Sudoeste 0 -- -- 88
2020-01-07 21:00:00 1.7 4 Sudoeste -- -- 0 -- -- 87
2020-01-07 20:00:00 2.4 0 Calma 4 Noroeste 0 -- -- 84
2020-01-07 19:00:00 3.8 0 Calma 6 Oeste 0 -- -- 77
2020-01-07 18:00:00 5.7 5 Oeste 11 Oeste 0 -- -- 64
2020-01-07 17:00:00 7.7 7 Oeste 13 Oeste 0 -- -- 62
2020-01-07 16:00:00 8 8 Oeste 15 Oeste 0 -- -- 62
2020-01-07 15:00:00 7.6 9 Sudoeste 13 Oeste 0 -- -- 58
2020-01-07 14:00:00 5.7 5 Oeste 9 Sudoeste 0 -- -- 73
2020-01-07 13:00:00 3.7 5 Sudoeste 9 Sudoeste 0 -- -- 82
2020-01-07 12:00:00 2.3 0 Calma 5 Sur 0 -- -- 86
2020-01-07 11:00:00 -1.2 0 Calma 4 Norte 0 -- -- 92
2020-01-07 10:00:00 -2.7 0 Calma 5 Sur 0 -- -- 93
2020-01-07 09:00:00 -5.4 0 Calma 3 Sudoeste 0 -- -- 93
2020-01-07 08:00:00 -4.5 0 Calma 5 Noroeste 0 -- -- 92
2020-01-07 07:00:00 -3.9 0 Calma 4 Norte 0 -- -- 92
2020-01-07 06:00:00 -4 3 Norte 4 Norte 0 -- -- 92
2020-01-07 05:00:00 -3.3 5 Sudeste 6 Sudeste 0 -- -- 93
2020-01-07 04:00:00 -3.2 0 Calma 5 Este 0 -- -- 94
2020-01-07 03:00:00 -3 0 Calma 5 Noroeste 0 -- -- 90
2020-01-07 02:00:00 -2.1 2 Norte 4 Norte 0 -- -- 90
2020-01-07 01:00:00 -1.9 3 Norte 4 Este 0 -- -- 91
2020-01-07 00:00:00 -1.3 0 Calma 6 Norte 0 -- -- 90
2020-01-06 23:00:00 -1.5 3 Norte 9 Nordeste 0 -- -- 91
2020-01-06 22:00:00 0.5 0 Calma 6 Sudoeste 0 -- -- 90
2020-01-06 21:00:00 1.7 3 Sudoeste 7 Sudoeste 0 -- -- 83
2020-01-06 20:00:00 2.6 2 Noroeste 8 Noroeste 0 -- -- 79
2020-01-06 19:00:00 3.7 8 Noroeste 12 Noroeste 0 -- -- 74
2020-01-06 18:00:00 4.9 9 Noroeste 12 Noroeste 0 -- -- 73
2020-01-06 17:00:00 8.5 7 Noroeste 13 Oeste 0 -- -- 60
2020-01-06 16:00:00 9.1 7 Oeste 11 Noroeste 0 -- -- 56
2020-01-06 15:00:00 8.9 7 Noroeste 13 Oeste 0 -- -- 59
2020-01-06 14:00:00 7.5 3 Noroeste 9 Noroeste 0 -- -- 61
2020-01-06 13:00:00 5.8 4 Oeste 10 Oeste 0 -- -- 78
2020-01-06 12:00:00 3.2 4 Norte 8 Norte 0 -- -- 95
2020-01-06 11:00:00 0.9 4 Este 7 Sudeste 0.2 -- -- 98
2020-01-06 10:00:00 -1.4 0 Calma 5 Norte 0 -- -- 99